Time;durP1;ratioP1;P1;durP2;ratioP2;P2;SDS_P1;SDS_P2;PMS_P1;PMS_P2;Temp;Humidity;BMP_temperature;BMP_pressure;BME280_temperature;BME280_humidity;BME280_pressure;Samples;Min_cycle;Max_cycle;Signal;HPM_P1;HPM_P2
2023/06/22 00:00:15;;;;;;;8.80;8.10;;;22.10;99.90;;;;;;6158000;23;20467;-82
2023/06/22 00:02:42;;;;;;;8.87;8.10;;;22.10;99.90;;;;;;6155344;23;20489;-82
2023/06/22 00:05:09;;;;;;;8.97;8.27;;;22.00;99.90;;;;;;6166515;23;20432;-82
2023/06/22 00:07:38;;;;;;;9.50;8.70;;;22.10;99.90;;;;;;6164715;23;20505;-82
2023/06/22 00:10:07;;;;;;;9.50;8.80;;;22.00;99.90;;;;;;6157467;23;20432;-85
2023/06/22 00:12:37;;;;;;;9.80;8.80;;;22.00;99.90;;;;;;6148028;23;21141;-83
2023/06/22 00:15:05;;;;;;;9.13;8.33;;;22.00;99.90;;;;;;6149476;23;20436;-83
2023/06/22 00:17:32;;;;;;;9.10;8.37;;;22.00;99.90;;;;;;6150752;23;20449;-83
2023/06/22 00:20:00;;;;;;;10.03;9.10;;;22.00;99.90;;;;;;6155193;23;20808;-83
2023/06/22 00:22:28;;;;;;;10.10;9.30;;;22.00;99.90;;;;;;6162543;23;20435;-83
2023/06/22 00:24:57;;;;;;;9.20;8.50;;;21.90;99.90;;;;;;6157913;23;20444;-83
2023/06/22 00:27:24;;;;;;;8.20;7.50;;;21.90;99.90;;;;;;6162875;23;20491;-83
2023/06/22 00:29:51;;;;;;;9.20;8.40;;;21.80;99.90;;;;;;6170271;23;20539;-82
2023/06/22 00:32:18;;;;;;;8.87;8.17;;;21.80;99.90;;;;;;6149410;23;20437;-83
2023/06/22 00:34:45;;;;;;;9.37;8.57;;;21.80;99.90;;;;;;6147468;23;20440;-83
2023/06/22 00:37:13;;;;;;;9.30;8.50;;;21.70;99.90;;;;;;6145992;23;20559;-83
2023/06/22 00:39:39;;;;;;;9.40;8.77;;;21.70;99.90;;;;;;6145119;23;20434;-83
2023/06/22 00:42:08;;;;;;;9.67;8.93;;;21.70;99.90;;;;;;6158405;23;21077;-84
2023/06/22 00:44:36;;;;;;;10.30;9.43;;;21.60;99.90;;;;;;6153252;23;20444;-83
2023/06/22 00:47:04;;;;;;;9.83;8.93;;;21.60;99.90;;;;;;6143726;23;20452;-84
2023/06/22 00:49:31;;;;;;;10.10;9.40;;;21.50;99.90;;;;;;6147839;23;20488;-83
2023/06/22 00:51:59;;;;;;;9.20;8.40;;;21.50;99.90;;;;;;6151573;23;20445;-83
2023/06/22 00:54:26;;;;;;;10.20;9.40;;;21.40;99.90;;;;;;6154588;23;20881;-83
2023/06/22 00:56:56;;;;;;;10.60;9.47;;;21.40;99.90;;;;;;6155486;23;20468;-83
2023/06/22 00:59:25;;;;;;;10.63;9.73;;;21.40;99.90;;;;;;6155387;23;20472;-82
2023/06/22 01:01:52;;;;;;;10.33;9.47;;;21.40;99.90;;;;;;6144948;23;20511;-82
2023/06/22 01:04:19;;;;;;;9.60;8.70;;;21.30;99.90;;;;;;6149283;23;20439;-83
2023/06/22 01:06:55;;;;;;;9.30;8.60;;;21.30;99.90;;;;;;6145195;23;20440;-83
2023/06/22 01:09:28;;;;;;;10.27;9.40;;;21.30;99.90;;;;;;6138122;23;20496;-82
2023/06/22 01:12:01;;;;;;;10.57;9.73;;;21.40;99.90;;;;;;6142065;23;20979;-82
2023/06/22 01:14:37;;;;;;;10.63;9.53;;;21.40;99.90;;;;;;6152887;23;20450;-82
2023/06/22 01:17:07;;;;;;;9.63;8.53;;;21.40;99.90;;;;;;6145900;23;20523;-83
2023/06/22 01:19:46;;;;;;;9.47;8.67;;;21.40;99.90;;;;;;6155722;23;20428;-83
2023/06/22 01:22:18;;;;;;;8.83;7.97;;;21.40;99.90;;;;;;6158424;23;20803;-83
2023/06/22 01:24:54;;;;;;;9.90;9.00;;;21.40;99.90;;;;;;6158597;23;20459;-83
2023/06/22 01:27:34;;;;;;;9.67;8.87;;;21.50;99.90;;;;;;6148827;23;20497;-83
2023/06/22 01:30:05;;;;;;;9.43;8.70;;;21.50;99.90;;;;;;6160276;23;20437;-82
2023/06/22 01:32:35;;;;;;;9.70;8.90;;;21.50;99.90;;;;;;6147499;23;20440;-82
2023/06/22 01:35:05;;;;;;;8.67;8.00;;;21.50;99.90;;;;;;6160135;23;20451;-83
2023/06/22 01:37:37;;;;;;;9.03;8.33;;;21.50;99.90;;;;;;6162570;23;20550;-82
2023/06/22 01:40:06;;;;;;;8.90;8.30;;;21.60;99.90;;;;;;6148837;23;20471;-83
2023/06/22 01:42:35;;;;;;;9.13;8.37;;;21.60;99.90;;;;;;6164396;23;20939;-82
2023/06/22 01:45:05;;;;;;;7.93;7.33;;;21.60;99.90;;;;;;6170725;23;20459;-83
2023/06/22 01:47:33;;;;;;;9.80;9.00;;;21.60;99.90;;;;;;6175793;23;20526;-83
2023/06/22 01:50:00;;;;;;;9.07;8.33;;;21.60;99.90;;;;;;6159056;23;20518;-82
2023/06/22 01:52:27;;;;;;;9.00;8.30;;;21.50;99.90;;;;;;6169818;23;20836;-83
2023/06/22 01:54:54;;;;;;;8.83;8.10;;;21.50;99.90;;;;;;6165575;23;20784;-83
2023/06/22 01:57:21;;;;;;;9.87;8.97;;;21.50;99.90;;;;;;6169581;23;20807;-83
2023/06/22 01:59:53;;;;;;;9.27;8.53;;;21.50;99.90;;;;;;6151001;23;20439;-83
2023/06/22 02:02:29;;;;;;;9.67;8.87;;;21.50;99.90;;;;;;6156708;23;20474;-83
2023/06/22 02:05:00;;;;;;;9.20;8.40;;;21.40;99.90;;;;;;6159633;23;20424;-83
2023/06/22 02:07:33;;;;;;;9.00;8.20;;;21.40;99.90;;;;;;6159038;23;20456;-83
2023/06/22 02:10:03;;;;;;;9.10;8.33;;;21.40;99.90;;;;;;6166873;23;20431;-83
2023/06/22 02:12:31;;;;;;;9.70;8.80;;;21.40;99.90;;;;;;6169026;23;20442;-79
2023/06/22 02:15:00;;;;;;;8.97;8.20;;;21.30;99.90;;;;;;6153916;23;20839;-85
2023/06/22 02:17:32;;;;;;;9.70;8.20;;;21.30;99.90;;;;;;6141881;23;20553;-85
2023/06/22 02:19:59;;;;;;;8.87;8.17;;;21.30;99.90;;;;;;6160309;23;20987;-86
2023/06/22 02:22:27;;;;;;;9.37;8.67;;;21.30;99.90;;;;;;6162462;23;20481;-86
2023/06/22 02:24:54;;;;;;;9.67;8.77;;;21.30;99.90;;;;;;6158861;23;21207;-86
2023/06/22 02:27:21;;;;;;;8.03;7.37;;;21.30;99.90;;;;;;6163927;23;20444;-86
2023/06/22 02:29:48;;;;;;;8.40;7.70;;;21.30;99.90;;;;;;6168025;23;20473;-86
2023/06/22 02:32:17;;;;;;;9.40;8.60;;;21.30;99.90;;;;;;6162843;23;20440;-86
2023/06/22 02:34:47;;;;;;;8.27;7.67;;;21.30;99.90;;;;;;6164013;23;20496;-85
2023/06/22 02:37:15;;;;;;;9.20;8.40;;;21.40;99.90;;;;;;6166929;23;20467;-86
2023/06/22 02:39:42;;;;;;;8.23;7.47;;;21.40;99.90;;;;;;6155313;23;20431;-86
2023/06/22 02:42:11;;;;;;;8.17;7.57;;;21.40;99.90;;;;;;6160532;23;20432;-86
2023/06/22 02:44:38;;;;;;;9.03;8.23;;;21.50;99.90;;;;;;6172079;23;20467;-86
2023/06/22 02:47:05;;;;;;;8.43;7.60;;;21.50;99.90;;;;;;6168459;23;20479;-86
2023/06/22 02:49:32;;;;;;;8.67;7.97;;;21.50;99.90;;;;;;6169909;23;20459;-87
2023/06/22 02:52:01;;;;;;;8.00;7.40;;;21.50;99.90;;;;;;6179576;23;20428;-86
2023/06/22 02:54:28;;;;;;;8.07;7.47;;;21.50;99.90;;;;;;6172149;23;20519;-86
2023/06/22 02:56:55;;;;;;;8.27;7.43;;;21.50;99.90;;;;;;6170296;23;20467;-86
2023/06/22 02:59:23;;;;;;;8.03;7.37;;;21.50;99.90;;;;;;6166640;23;20432;-87
2023/06/22 03:01:50;;;;;;;8.73;8.03;;;21.50;99.90;;;;;;6160855;23;20444;-85
2023/06/22 03:04:17;;;;;;;8.90;8.17;;;21.50;99.90;;;;;;6161253;23;20427;-86
2023/06/22 03:06:44;;;;;;;8.37;7.67;;;21.50;99.90;;;;;;6175034;23;20455;-86
2023/06/22 03:09:13;;;;;;;9.87;8.97;;;21.50;99.90;;;;;;6164197;23;20956;-87
2023/06/22 03:11:40;;;;;;;9.03;8.33;;;21.50;99.90;;;;;;6165203;23;20864;-86
2023/06/22 03:14:07;;;;;;;8.30;7.60;;;21.50;99.90;;;;;;6178249;23;20829;-86
2023/06/22 03:16:34;;;;;;;9.97;9.13;;;21.40;99.90;;;;;;6165276;23;20467;-86
2023/06/22 03:19:01;;;;;;;8.87;8.03;;;21.40;99.90;;;;;;6168662;23;20454;-86
2023/06/22 03:21:29;;;;;;;8.47;7.83;;;21.40;99.90;;;;;;6165131;23;20438;-86
2023/06/22 03:23:57;;;;;;;8.20;7.50;;;21.40;99.90;;;;;;6160657;23;20901;-86
2023/06/22 03:26:26;;;;;;;8.50;7.77;;;21.40;99.90;;;;;;6159299;23;20441;-86
2023/06/22 03:28:53;;;;;;;9.40;8.60;;;21.40;99.90;;;;;;6160883;23;20437;-87
2023/06/22 03:31:21;;;;;;;11.17;10.17;;;21.40;99.90;;;;;;6164047;23;20443;-86
2023/06/22 03:33:49;;;;;;;9.73;9.03;;;21.30;99.90;;;;;;6171484;23;20432;-86
2023/06/22 03:36:18;;;;;;;10.73;9.87;;;21.20;99.90;;;;;;6163619;23;20440;-86
2023/06/22 03:38:46;;;;;;;10.17;9.37;;;21.10;99.90;;;;;;6169466;23;20922;-86
2023/06/22 03:41:13;;;;;;;10.73;9.83;;;21.10;99.90;;;;;;6169420;23;20918;-86
2023/06/22 03:43:42;;;;;;;11.73;10.57;;;21.00;99.90;;;;;;6150292;23;20431;-86
2023/06/22 03:46:09;;;;;;;10.53;9.63;;;20.80;99.90;;;;;;6156169;23;20946;-86
2023/06/22 03:48:36;;;;;;;10.00;9.20;;;20.80;99.90;;;;;;6161225;23;20432;-86
2023/06/22 03:51:03;;;;;;;10.07;9.37;;;20.70;99.90;;;;;;6161785;23;21109;-86
2023/06/22 03:53:31;;;;;;;9.80;8.80;;;20.70;99.90;;;;;;6155175;23;20530;-86
2023/06/22 03:55:58;;;;;;;9.90;9.00;;;20.70;99.90;;;;;;6169821;23;20434;-86
2023/06/22 03:58:25;;;;;;;9.93;9.13;;;20.70;99.90;;;;;;6171193;23;20473;-84
2023/06/22 04:00:54;;;;;;;9.97;8.97;;;20.70;99.90;;;;;;6151070;23;20443;-86
2023/06/22 04:03:21;;;;;;;10.07;9.13;;;20.80;99.90;;;;;;6170268;23;20427;-86
2023/06/22 04:05:48;;;;;;;10.03;9.00;;;20.80;99.90;;;;;;6160350;23;21160;-86
2023/06/22 04:08:17;;;;;;;9.30;8.60;;;20.90;99.90;;;;;;6163183;23;20518;-86
2023/06/22 04:10:44;;;;;;;9.10;8.30;;;21.00;99.90;;;;;;6159830;23;20456;-86
2023/06/22 04:13:11;;;;;;;9.00;8.30;;;21.10;99.90;;;;;;6160775;23;20431;-86
2023/06/22 04:15:38;;;;;;;9.70;8.80;;;21.10;99.90;;;;;;6173207;23;20431;-86
2023/06/22 04:18:07;;;;;;;11.87;10.73;;;21.20;99.90;;;;;;6151425;23;20466;-89
2023/06/22 04:20:34;;;;;;;10.60;9.77;;;21.10;99.90;;;;;;6162812;23;20432;-85
2023/06/22 04:23:01;;;;;;;9.50;8.60;;;21.10;99.90;;;;;;6165870;23;20934;-86
2023/06/22 04:25:28;;;;;;;9.97;9.23;;;21.10;99.90;;;;;;6173708;23;20463;-88
2023/06/22 04:27:55;;;;;;;10.07;9.27;;;21.10;99.90;;;;;;6171614;23;20541;-86
2023/06/22 04:30:22;;;;;;;10.73;9.83;;;21.10;99.90;;;;;;6157768;23;20527;-85
2023/06/22 04:32:55;;;;;;;8.93;8.23;;;21.00;99.90;;;;;;6155811;23;20866;-85
2023/06/22 04:35:24;;;;;;;10.63;9.73;;;21.10;99.90;;;;;;6166103;23;20529;-87
2023/06/22 04:37:54;;;;;;;11.00;10.00;;;21.10;99.90;;;;;;6172707;23;20603;-83
2023/06/22 04:40:22;;;;;;;10.37;9.40;;;21.10;99.90;;;;;;6171914;23;20522;-88
2023/06/22 04:42:53;;;;;;;10.80;9.90;;;21.10;99.90;;;;;;6151237;23;20491;-88
2023/06/22 04:45:21;;;;;;;10.67;9.77;;;21.10;99.90;;;;;;6153550;23;20867;-85
2023/06/22 04:47:48;;;;;;;11.60;10.50;;;21.10;99.90;;;;;;6154555;23;20967;-85
2023/06/22 04:50:17;;;;;;;11.30;10.40;;;21.10;99.90;;;;;;6160795;23;20537;-84
2023/06/22 04:52:46;;;;;;;10.83;9.83;;;21.10;99.90;;;;;;6163393;23;20997;-89
2023/06/22 04:55:18;;;;;;;12.07;11.03;;;21.00;99.90;;;;;;6159710;23;22035;-86
2023/06/22 04:57:48;;;;;;;10.57;9.67;;;21.00;99.90;;;;;;6169598;23;20533;-87
2023/06/22 05:00:17;;;;;;;11.90;10.80;;;21.00;99.90;;;;;;6175797;23;20488;-87
2023/06/22 05:02:45;;;;;;;9.67;8.87;;;21.10;99.90;;;;;;6161044;23;20468;-88
2023/06/22 05:05:14;;;;;;;10.30;9.40;;;21.10;99.90;;;;;;6163098;23;20554;-86
2023/06/22 05:07:43;;;;;;;11.43;10.53;;;21.30;99.90;;;;;;6137683;23;20509;-85
2023/06/22 05:10:13;;;;;;;11.33;10.43;;;21.40;99.90;;;;;;6144082;23;20831;-86
2023/06/22 05:12:41;;;;;;;12.23;11.23;;;21.40;99.90;;;;;;6137702;23;20432;-76
2023/06/22 05:15:09;;;;;;;11.97;10.90;;;21.50;99.90;;;;;;6152039;23;20447;-86
2023/06/22 05:17:42;;;;;;;10.57;9.60;;;21.50;99.90;;;;;;6164159;23;20573;-86
2023/06/22 05:20:11;;;;;;;10.17;9.23;;;21.50;99.90;;;;;;6157019;23;20881;-86
2023/06/22 05:22:38;;;;;;;11.30;10.20;;;21.60;99.90;;;;;;6157187;23;20430;-87
2023/06/22 05:25:07;;;;;;;11.13;10.13;;;21.60;99.90;;;;;;6157140;23;20499;-87
2023/06/22 05:27:39;;;;;;;10.40;9.50;;;21.70;99.90;;;;;;6156205;23;20516;-86
2023/06/22 05:30:07;;;;;;;10.67;9.63;;;21.70;99.90;;;;;;6152609;23;20834;-86
2023/06/22 05:32:35;;;;;;;11.23;10.23;;;21.80;99.90;;;;;;6176286;23;20431;-87
2023/06/22 05:35:03;;;;;;;10.43;9.20;;;21.90;99.90;;;;;;6142261;23;20823;-87
2023/06/22 05:37:30;;;;;;;10.10;9.20;;;22.00;99.90;;;;;;6160945;23;20508;-87
2023/06/22 05:39:58;;;;;;;10.70;9.73;;;22.10;99.90;;;;;;6157405;23;20463;-84
2023/06/22 05:42:25;;;;;;;11.33;10.33;;;22.20;99.90;;;;;;6159504;23;20432;-85
2023/06/22 05:44:54;;;;;;;9.17;8.47;;;22.30;99.90;;;;;;6167542;23;20977;-85
2023/06/22 05:47:22;;;;;;;11.43;10.37;;;22.30;99.90;;;;;;6163007;23;20549;-85
2023/06/22 05:49:49;;;;;;;10.17;9.27;;;22.30;99.90;;;;;;6168991;23;20502;-85
2023/06/22 05:52:16;;;;;;;11.00;10.07;;;22.40;99.90;;;;;;6158350;23;20481;-85
2023/06/22 05:54:43;;;;;;;10.50;9.50;;;22.40;99.90;;;;;;6173729;23;20514;-85
2023/06/22 05:57:10;;;;;;;11.23;10.30;;;22.40;99.90;;;;;;6161038;23;20559;-85
2023/06/22 05:59:37;;;;;;;10.93;9.03;;;22.50;99.90;;;;;;6166466;23;20986;-86
2023/06/22 06:02:06;;;;;;;11.37;10.23;;;22.50;99.90;;;;;;6164831;23;20466;-86
2023/06/22 06:04:34;;;;;;;11.03;10.13;;;22.50;99.90;;;;;;6167730;23;20443;-83
2023/06/22 06:07:01;;;;;;;11.23;10.30;;;22.50;99.90;;;;;;6159170;23;20455;-83
2023/06/22 06:09:29;;;;;;;10.63;9.83;;;22.40;99.90;;;;;;6164836;23;20547;-83
2023/06/22 06:11:56;;;;;;;10.23;9.43;;;22.40;99.90;;;;;;6161534;23;20443;-83
2023/06/22 06:14:23;;;;;;;9.30;8.57;;;22.40;99.90;;;;;;6154710;23;21042;-84
2023/06/22 06:16:50;;;;;;;10.60;9.57;;;22.70;99.90;;;;;;6155467;23;20856;-84
2023/06/22 06:19:19;;;;;;;9.87;8.97;;;22.60;99.90;;;;;;6161953;23;20495;-83
2023/06/22 06:21:46;;;;;;;10.70;9.67;;;22.70;99.90;;;;;;6169035;23;20443;-83
2023/06/22 06:24:13;;;;;;;10.23;9.43;;;22.80;99.90;;;;;;6159205;23;20773;-83
2023/06/22 06:26:40;;;;;;;10.60;9.80;;;22.90;99.90;;;;;;6158492;23;21088;-84
2023/06/22 06:29:07;;;;;;;8.20;7.60;;;22.90;99.90;;;;;;6167303;23;20460;-84
2023/06/22 06:31:35;;;;;;;9.23;8.47;;;23.00;99.90;;;;;;6158671;23;20451;-84
2023/06/22 06:34:03;;;;;;;7.90;7.30;;;23.10;99.90;;;;;;6158610;23;20428;-84
2023/06/22 06:36:31;;;;;;;9.50;7.97;;;23.30;99.90;;;;;;6153838;23;20783;-84
2023/06/22 06:38:58;;;;;;;9.70;8.80;;;23.50;99.90;;;;;;6163693;23;20507;-83
2023/06/22 06:41:25;;;;;;;8.33;7.63;;;23.60;99.90;;;;;;6153676;23;20434;-84
2023/06/22 06:43:52;;;;;;;9.90;9.10;;;24.00;99.90;;;;;;6167886;23;20450;-84
2023/06/22 06:46:20;;;;;;;8.83;8.13;;;24.00;99.90;;;;;;6158202;23;20470;-83
2023/06/22 06:48:47;;;;;;;8.03;7.33;;;24.10;99.90;;;;;;6156728;23;22183;-83
2023/06/22 06:51:14;;;;;;;9.17;8.27;;;24.20;99.90;;;;;;6149566;23;20465;-83
2023/06/22 06:53:42;;;;;;;8.80;8.00;;;24.30;99.90;;;;;;6158179;23;20516;-84
2023/06/22 06:56:10;;;;;;;9.03;8.23;;;24.40;99.90;;;;;;6161833;23;20454;-83
2023/06/22 06:58:37;;;;;;;8.43;7.73;;;24.50;99.90;;;;;;6157075;23;20467;-84
2023/06/22 07:01:05;;;;;;;8.13;7.43;;;24.50;99.90;;;;;;6157422;23;20432;-84
2023/06/22 07:03:33;;;;;;;7.43;6.83;;;24.60;99.90;;;;;;6165056;23;20987;-84
2023/06/22 07:06:00;;;;;;;8.07;7.47;;;24.70;99.90;;;;;;6153499;23;20478;-84
2023/06/22 07:08:27;;;;;;;7.53;6.93;;;24.90;99.90;;;;;;6171396;23;20439;-84
2023/06/22 07:10:56;;;;;;;7.53;6.83;;;24.90;99.90;;;;;;6167559;23;20431;-84
2023/06/22 07:13:23;;;;;;;8.00;7.30;;;24.90;99.90;;;;;;6170528;23;20488;-84
2023/06/22 07:15:50;;;;;;;7.63;6.83;;;25.00;99.90;;;;;;6175222;23;21003;-84
2023/06/22 07:18:17;;;;;;;7.97;7.20;;;25.00;99.90;;;;;;6164029;23;20451;-84
2023/06/22 07:20:45;;;;;;;8.20;7.43;;;25.10;99.90;;;;;;6163152;23;20435;-84
2023/06/22 07:23:12;;;;;;;7.03;6.43;;;25.20;99.90;;;;;;6166639;23;20434;-84
2023/06/22 07:25:39;;;;;;;7.20;6.50;;;25.40;99.90;;;;;;6161796;23;20970;-84
2023/06/22 07:28:08;;;;;;;7.73;7.13;;;25.50;99.90;;;;;;6172589;23;20555;-84
2023/06/22 07:30:35;;;;;;;7.47;6.87;;;25.90;99.90;;;;;;6168437;23;20500;-84
2023/06/22 07:33:03;;;;;;;6.63;6.13;;;25.70;99.90;;;;;;6168468;23;20428;-84
2023/06/22 07:35:31;;;;;;;6.80;6.30;;;25.80;99.90;;;;;;6164475;23;20435;-84
2023/06/22 07:37:58;;;;;;;7.10;6.50;;;25.90;99.90;;;;;;6158447;23;21049;-84
2023/06/22 07:40:26;;;;;;;7.07;6.47;;;25.90;99.90;;;;;;6164342;23;20482;-84
2023/06/22 07:42:54;;;;;;;7.97;7.27;;;26.00;99.90;;;;;;6164781;23;20814;-84
2023/06/22 07:45:23;;;;;;;6.90;6.30;;;26.10;99.90;;;;;;6162444;23;20440;-84
2023/06/22 07:47:50;;;;;;;7.03;6.40;;;26.30;99.90;;;;;;6157081;23;20459;-83
2023/06/22 07:50:17;;;;;;;7.30;6.70;;;26.50;99.90;;;;;;6162181;23;20436;-84
2023/06/22 07:52:45;;;;;;;6.87;6.27;;;26.60;99.90;;;;;;6155250;23;20927;-84
2023/06/22 07:55:12;;;;;;;7.63;6.93;;;26.70;99.90;;;;;;6155730;23;20938;-84
2023/06/22 07:57:41;;;;;;;6.80;6.13;;;27.00;99.90;;;;;;6157971;23;20428;-84
2023/06/22 08:00:12;;;;;;;6.47;5.97;;;27.00;99.90;;;;;;6152405;23;20939;-84
2023/06/22 08:02:41;;;;;;;5.70;5.20;;;27.20;99.90;;;;;;6153159;23;20436;-84
2023/06/22 08:05:09;;;;;;;6.70;6.10;;;27.40;99.90;;;;;;6149858;23;20470;-84
2023/06/22 08:07:37;;;;;;;6.40;5.80;;;27.60;99.90;;;;;;6148515;23;20472;-77
2023/06/22 08:10:05;;;;;;;6.53;6.03;;;27.90;99.90;;;;;;6150084;23;20436;-78
2023/06/22 08:12:33;;;;;;;6.37;5.73;;;28.20;99.90;;;;;;6153430;23;20558;-78
2023/06/22 08:15:00;;;;;;;6.50;5.90;;;28.40;99.90;;;;;;6150365;23;20436;-79
2023/06/22 08:17:27;;;;;;;6.60;6.00;;;28.60;99.90;;;;;;6149258;23;20455;-78
2023/06/22 08:19:56;;;;;;;6.23;5.73;;;28.60;99.90;;;;;;6152125;23;20980;-79
2023/06/22 08:22:23;;;;;;;6.63;6.03;;;28.70;99.90;;;;;;6151756;23;20473;-79
2023/06/22 08:24:50;;;;;;;7.03;6.40;;;29.00;99.90;;;;;;6151502;23;20503;-79
2023/06/22 08:27:20;;;;;;;5.80;5.40;;;29.20;99.90;;;;;;6150938;23;20517;-79
2023/06/22 08:29:47;;;;;;;6.17;5.60;;;29.30;99.90;;;;;;6150312;23;20943;-79
2023/06/22 08:32:14;;;;;;;5.80;5.33;;;29.60;99.90;;;;;;6148626;23;20568;-78
2023/06/22 08:34:42;;;;;;;6.13;5.33;;;29.60;99.90;;;;;;6152849;23;20933;-84
2023/06/22 08:37:11;;;;;;;5.97;5.47;;;29.60;99.90;;;;;;6149989;23;20983;-84
2023/06/22 08:39:39;;;;;;;7.00;6.30;;;29.60;99.90;;;;;;6149705;23;20464;-84
2023/06/22 08:42:07;;;;;;;9.77;5.87;;;29.40;99.90;;;;;;6156641;23;20442;-85
2023/06/22 08:44:34;;;;;;;6.17;5.63;;;29.20;99.90;;;;;;6158166;23;20433;-86
2023/06/22 08:47:02;;;;;;;6.80;6.20;;;29.10;99.90;;;;;;6154667;23;20958;-86
2023/06/22 08:49:29;;;;;;;8.83;6.20;;;28.90;99.90;;;;;;6157341;23;20448;-85
2023/06/22 08:51:56;;;;;;;6.90;5.40;;;28.80;99.90;;;;;;6157234;23;20514;-86
2023/06/22 08:54:25;;;;;;;6.70;6.00;;;28.70;99.90;;;;;;6151681;23;20431;-86
2023/06/22 08:56:52;;;;;;;6.13;5.60;;;28.60;99.90;;;;;;6150180;23;20460;-86
2023/06/22 08:59:19;;;;;;;6.40;5.90;;;28.60;99.90;;;;;;6147207;23;20463;-86
2023/06/22 09:01:48;;;;;;;5.67;5.17;;;28.50;99.90;;;;;;6144704;23;21372;-86
2023/06/22 09:04:16;;;;;;;6.03;5.43;;;28.30;99.90;;;;;;6155890;23;20451;-86
2023/06/22 09:06:46;;;;;;;6.97;6.27;;;28.40;99.90;;;;;;6156003;23;20789;-86
2023/06/22 09:09:13;;;;;;;6.13;5.60;;;28.40;99.90;;;;;;6144485;23;20439;-74
2023/06/22 09:11:42;;;;;;;6.90;6.30;;;28.70;99.90;;;;;;6165325;23;20436;-86
2023/06/22 09:14:09;;;;;;;7.37;5.70;;;28.80;99.90;;;;;;6157670;23;20969;-86
2023/06/22 09:16:37;;;;;;;5.93;5.03;;;28.90;99.90;;;;;;6156525;23;20452;-87
2023/06/22 09:19:04;;;;;;;7.20;5.57;;;29.30;99.90;;;;;;6161812;23;20455;-86
2023/06/22 09:21:31;;;;;;;8.50;5.80;;;29.60;99.90;;;;;;6151808;23;21814;-86
2023/06/22 09:23:58;;;;;;;6.83;6.13;;;30.10;99.90;;;;;;6150994;23;20432;-80
2023/06/22 09:26:25;;;;;;;7.33;6.60;;;30.10;99.90;;;;;;6151183;23;20488;-80
2023/06/22 09:28:54;;;;;;;6.70;6.10;;;29.90;99.90;;;;;;6152352;23;21039;-80
2023/06/22 09:31:25;;;;;;;6.43;5.77;;;29.80;99.90;;;;;;6149421;23;20499;-80
2023/06/22 09:33:53;;;;;;;7.47;6.77;;;29.70;99.90;;;;;;6152131;23;20439;-80
2023/06/22 09:36:21;;;;;;;7.60;5.80;;;29.90;99.90;;;;;;6144563;23;21691;-80
2023/06/22 09:38:55;;;;;;;7.23;6.13;;;30.10;99.90;;;;;;6149443;23;20521;-80
2023/06/22 09:41:22;;;;;;;5.93;5.30;;;30.70;99.90;;;;;;6138220;23;20935;-80
2023/06/22 09:43:49;;;;;;;5.50;5.00;;;31.40;99.90;;;;;;6152117;23;20515;-81
2023/06/22 09:46:18;;;;;;;6.70;6.07;;;32.20;99.90;;;;;;6146407;23;20539;-81
2023/06/22 09:48:45;;;;;;;6.93;6.27;;;32.80;99.90;;;;;;6144958;23;21010;-81
2023/06/22 09:51:13;;;;;;;5.93;5.27;;;32.70;99.90;;;;;;6139825;23;20440;-80
2023/06/22 09:53:40;;;;;;;7.37;5.87;;;32.70;99.90;;;;;;6147030;23;20467;-80
2023/06/22 09:56:11;;;;;;;5.73;5.13;;;32.80;99.90;;;;;;6151089;23;20541;-84
2023/06/22 09:58:38;;;;;;;6.07;5.47;;;32.90;99.90;;;;;;6151814;23;20488;-84
2023/06/22 10:01:05;;;;;;;6.03;5.53;;;32.80;99.90;;;;;;6150617;23;20926;-84
2023/06/22 10:03:33;;;;;;;5.60;5.10;;;32.80;99.90;;;;;;6151949;23;20519;-84
2023/06/22 10:06:00;;;;;;;7.17;5.40;;;33.00;99.90;;;;;;6151776;23;20516;-85
2023/06/22 10:08:27;;;;;;;6.13;5.53;;;33.10;99.90;;;;;;6154125;23;20920;-84
2023/06/22 10:10:55;;;;;;;6.00;5.40;;;33.30;99.90;;;;;;6142116;23;20855;-84
2023/06/22 10:13:22;;;;;;;6.60;6.00;;;33.50;99.90;;;;;;6154805;23;20446;-82
2023/06/22 10:15:51;;;;;;;6.43;5.93;;;33.20;99.90;;;;;;6152897;23;20796;-83
2023/06/22 10:18:18;;;;;;;6.53;5.70;;;33.10;99.90;;;;;;6152594;23;20485;-83
2023/06/22 10:20:50;;;;;;;6.53;5.93;;;32.90;99.90;;;;;;6153718;23;20489;-84
2023/06/22 10:23:17;;;;;;;7.43;6.10;;;32.60;99.90;;;;;;6153384;23;20435;-84
2023/06/22 10:25:44;;;;;;;10.07;5.70;;;32.60;99.90;;;;;;6153025;23;21392;-84
2023/06/22 10:28:12;;;;;;;7.93;6.07;;;32.50;99.90;;;;;;6144563;23;20432;-84
2023/06/22 10:30:41;;;;;;;6.17;5.57;;;32.50;99.90;;;;;;6146534;23;20469;-84
2023/06/22 10:33:08;;;;;;;6.37;5.70;;;32.60;99.90;;;;;;6144686;23;20433;-84
2023/06/22 10:35:37;;;;;;;8.00;5.77;;;32.60;99.90;;;;;;6145393;23;20460;-84
2023/06/22 10:38:06;;;;;;;5.87;5.20;;;32.50;99.90;;;;;;6142225;23;20432;-84
2023/06/22 10:40:33;;;;;;;6.80;6.00;;;32.70;99.90;;;;;;6146423;23;20469;-84
2023/06/22 10:43:00;;;;;;;6.20;5.60;;;32.90;99.80;;;;;;6146242;23;20479;-85
2023/06/22 10:45:28;;;;;;;6.33;5.73;;;33.10;99.90;;;;;;6151797;23;20439;-84
2023/06/22 10:47:55;;;;;;;5.80;5.20;;;33.40;99.90;;;;;;6162110;23;20463;-84
2023/06/22 10:50:23;;;;;;;7.23;6.00;;;33.70;99.90;;;;;;6158006;23;20432;-84
2023/06/22 10:52:50;;;;;;;6.90;6.13;;;33.90;99.00;;;;;;6154826;23;20439;-84
2023/06/22 10:55:19;;;;;;;8.63;5.33;;;34.10;99.00;;;;;;6152125;23;20460;-84
2023/06/22 10:57:46;;;;;;;9.87;5.50;;;34.30;98.90;;;;;;6155885;23;20439;-84
2023/06/22 11:00:15;;;;;;;5.70;4.80;;;34.40;97.50;;;;;;6147951;23;20839;-85
2023/06/22 11:02:42;;;;;;;6.90;5.57;;;34.30;97.50;;;;;;6153361;23;20496;-84
2023/06/22 11:05:09;;;;;;;6.30;5.17;;;34.20;97.60;;;;;;6152958;23;20452;-85
2023/06/22 11:07:37;;;;;;;8.90;7.17;;;34.10;97.60;;;;;;6149346;23;20493;-85
2023/06/22 11:10:06;;;;;;;8.07;5.77;;;34.00;97.20;;;;;;6145821;23;20671;-85
2023/06/22 11:12:34;;;;;;;7.40;5.43;;;33.80;96.70;;;;;;6151210;23;20468;-85
2023/06/22 11:15:01;;;;;;;5.93;5.33;;;33.70;97.20;;;;;;6151492;23;20827;-85
2023/06/22 11:17:28;;;;;;;12.13;5.30;;;33.60;97.70;;;;;;6145187;23;20508;-84
2023/06/22 11:19:55;;;;;;;7.97;5.60;;;33.60;97.40;;;;;;6150968;23;20826;-85
2023/06/22 11:22:22;;;;;;;6.37;5.77;;;33.20;97.30;;;;;;6149711;23;20519;-85
2023/06/22 11:24:50;;;;;;;7.37;5.80;;;33.10;97.70;;;;;;6145838;23;20449;-85
2023/06/22 11:27:16;;;;;;;7.43;5.83;;;33.10;98.10;;;;;;6153783;23;20440;-85
2023/06/22 11:29:45;;;;;;;6.20;5.30;;;33.10;98.00;;;;;;6151943;23;20515;-85
2023/06/22 11:32:12;;;;;;;6.10;5.60;;;33.10;98.70;;;;;;6151173;23;20958;-85
2023/06/22 11:34:39;;;;;;;8.97;5.50;;;33.00;99.50;;;;;;6151161;23;20482;-85
2023/06/22 11:37:07;;;;;;;6.23;5.40;;;33.00;99.00;;;;;;6151812;23;22066;-85
2023/06/22 11:39:34;;;;;;;6.43;5.80;;;33.00;98.00;;;;;;6144956;23;20513;-84
2023/06/22 11:42:01;;;;;;;6.30;5.73;;;33.00;98.10;;;;;;6149167;23;20969;-84
2023/06/22 11:44:29;;;;;;;7.33;5.57;;;32.90;97.90;;;;;;6147999;23;20563;-85
2023/06/22 11:47:00;;;;;;;7.37;5.30;;;32.90;98.00;;;;;;6147994;23;20922;-84
2023/06/22 11:49:28;;;;;;;6.40;5.70;;;32.80;98.00;;;;;;6144183;23;20443;-84
2023/06/22 11:51:55;;;;;;;7.97;5.87;;;32.90;98.50;;;;;;6144936;23;20490;-84
2023/06/22 11:54:23;;;;;;;6.97;6.37;;;32.70;99.10;;;;;;6141426;23;21846;-85
2023/06/22 11:56:49;;;;;;;6.93;5.57;;;32.60;99.00;;;;;;6153516;23;20433;-84
2023/06/22 11:59:17;;;;;;;6.60;5.60;;;32.50;98.70;;;;;;6134514;23;20967;-84
2023/06/22 12:01:44;;;;;;;7.90;6.00;;;32.30;99.20;;;;;;6140014;23;21022;-85
2023/06/22 12:04:12;;;;;;;9.63;5.83;;;32.20;99.70;;;;;;6140252;23;20435;-84
2023/06/22 12:06:41;;;;;;;6.80;5.80;;;32.00;99.80;;;;;;6147540;23;20460;-85
2023/06/22 12:09:09;;;;;;;8.53;6.03;;;32.00;99.70;;;;;;6140046;23;20447;-85
2023/06/22 12:11:36;;;;;;;6.30;5.70;;;32.00;99.90;;;;;;6147793;23;20437;-85
2023/06/22 12:14:03;;;;;;;7.80;6.37;;;32.00;99.90;;;;;;6153789;23;20458;-85
2023/06/22 12:16:30;;;;;;;6.53;5.80;;;31.90;99.90;;;;;;6151954;23;20456;-85
2023/06/22 12:18:57;;;;;;;6.00;5.50;;;31.90;99.90;;;;;;6152014;23;20437;-86
2023/06/22 12:21:25;;;;;;;9.80;6.17;;;31.90;99.90;;;;;;6144236;23;20558;-85
2023/06/22 12:23:52;;;;;;;9.97;6.00;;;31.90;99.90;;;;;;6145774;23;20460;-85
2023/06/22 12:26:19;;;;;;;6.03;5.40;;;31.90;99.90;;;;;;6156005;23;20543;-85
2023/06/22 12:28:46;;;;;;;6.93;5.90;;;32.00;99.90;;;;;;6154847;23;20432;-82
2023/06/22 12:31:14;;;;;;;6.90;5.80;;;32.20;99.80;;;;;;6155644;23;20446;-84
2023/06/22 12:33:41;;;;;;;7.80;5.60;;;32.00;99.90;;;;;;6151706;23;20523;-84
2023/06/22 12:36:08;;;;;;;6.60;5.43;;;32.00;99.40;;;;;;6142933;23;20897;-85
2023/06/22 12:38:37;;;;;;;7.13;5.50;;;32.10;99.90;;;;;;6135843;23;20861;-85
2023/06/22 12:41:04;;;;;;;7.30;5.77;;;32.20;99.90;;;;;;6136749;23;20467;-85
2023/06/22 12:43:31;;;;;;;7.17;5.93;;;32.30;99.60;;;;;;6147849;23;20440;-85
2023/06/22 12:45:58;;;;;;;7.07;5.83;;;32.50;99.30;;;;;;6151676;23;20808;-85